Home > Products > Valid Products > TAF

000
FTUS44 KOUN 260527
TAFPNC
TAF
KPNC 260527Z 2606/2706 19010KT P6SM SCT100 BKN250
     FM261000 31009KT P6SM SCT100 SCT250
     FM261600 34014G22KT P6SM SCT200=



000
FTUS44 KOUN 260527
TAFOKC
TAF
KOKC 260527Z 2606/2706 17007KT P6SM SCT100 BKN250
     FM261100 33011KT P6SM BKN250
     FM261700 34014G25KT P6SM SCT250=



000
FTUS44 KOUN 260527
TAFSPS
TAF
KSPS 260527Z 2606/2706 19009KT P6SM SCT250
     FM261200 30010KT P6SM SCT250
     FM261600 34014G25KT P6SM SCT200=



000
FTUS44 KOUN 260527
TAFOUN
TAF
KOUN 260527Z 2606/2706 17007KT P6SM SCT100 BKN250
     FM261100 33011KT P6SM BKN250
     FM261700 34014G25KT P6SM SCT250=



000
FTUS44 KOUN 260527
TAFWWR
TAF
KWWR 260527Z 2606/2706 22010KT P6SM SCT100 SCT250
     FM260800 31009KT P6SM SCT100 SCT250
     FM261600 34014G22KT P6SM SCT200=



000
FTUS44 KOUN 260527
TAFHBR
TAF
KHBR 260527Z 2606/2706 20010KT P6SM SCT250
     FM261000 32013KT P6SM SCT250
     FM261600 34014G22KT P6SM SCT200=



000
FTUS44 KOUN 260527
TAFHBR
TAF
KHBR 260527Z 2606/2706 20010KT P6SM SCT250
     FM261000 32013KT P6SM SCT250
     FM261600 34014G22KT P6SM SCT200=



000
FTUS44 KOUN 260527
TAFGAG
TAF
KGAG 260527Z 2606/2706 21010KT P6SM SCT100 SCT250
     FM260800 31009KT P6SM SCT100 SCT250
     FM261600 34014G22KT P6SM SCT200=



000
FTUS44 KOUN 260527
TAFOUN
TAF
KOUN 260527Z 2606/2706 17007KT P6SM SCT100 BKN250
     FM261100 33011KT P6SM BKN250
     FM261700 34014G25KT P6SM SCT250=



000
FTUS44 KOUN 260527
TAFLAW
TAF
KLAW 260527Z 2606/2706 18007KT P6SM BKN250
     FM261100 31010KT P6SM SCT250
     FM261700 34014G25KT P6SM SCT200=



000
FTUS44 KOUN 260527
TAFSPS
TAF
KSPS 260527Z 2606/2706 19009KT P6SM SCT250
     FM261200 30010KT P6SM SCT250
     FM261600 34014G25KT P6SM SCT200=



000
FTUS44 KOUN 260527
TAFPNC
TAF
KPNC 260527Z 2606/2706 19010KT P6SM SCT100 BKN250
     FM261000 31009KT P6SM SCT100 SCT250
     FM261600 34014G22KT P6SM SCT200=



000
FTUS44 KOUN 260527
TAFLAW
TAF
KLAW 260527Z 2606/2706 18007KT P6SM BKN250
     FM261100 31010KT P6SM SCT250
     FM261700 34014G25KT P6SM SCT200=



000
FTUS44 KOUN 260527
TAFOKC
TAF
KOKC 260527Z 2606/2706 17007KT P6SM SCT100 BKN250
     FM261100 33011KT P6SM BKN250
     FM261700 34014G25KT P6SM SCT250=



000
FTUS44 KOUN 260527
TAFWWR
TAF
KWWR 260527Z 2606/2706 22010KT P6SM SCT100 SCT250
     FM260800 31009KT P6SM SCT100 SCT250
     FM261600 34014G22KT P6SM SCT200=



000
FTUS44 KOUN 260527
TAFGAG
TAF
KGAG 260527Z 2606/2706 21010KT P6SM SCT100 SCT250
     FM260800 31009KT P6SM SCT100 SCT250
     FM261600 34014G22KT P6SM SCT200=



000
FTUS44 KOUN 252333
TAFLAW
TAF
KLAW 252333Z 2600/2624 18007KT P6SM BKN250
     FM261000 31010KT P6SM BKN250=



000
FTUS44 KOUN 252333
TAFOKC
TAF
KOKC 252333Z 2600/2624 17009KT P6SM BKN250
     FM261000 31010KT P6SM BKN250=



000
FTUS44 KOUN 252333
TAFSPS
TAF
KSPS 252333Z 2600/2624 19009KT P6SM SCT250
     FM261100 30010KT P6SM SCT250=



000
FTUS44 KOUN 252333
TAFHBR
TAF
KHBR 252333Z 2600/2624 19010KT P6SM BKN250
     FM261000 32013KT P6SM BKN250=



000
FTUS44 KOUN 252333
TAFPNC
TAF
KPNC 252333Z 2600/2624 17009KT P6SM BKN250
     FM261000 31007KT P6SM BKN250=



000
FTUS44 KOUN 252333
TAFOKC
TAF
KOKC 252333Z 2600/2624 17009KT P6SM BKN250
     FM261000 31010KT P6SM BKN250=



000
FTUS44 KOUN 252333
TAFWWR
TAF
KWWR 252333Z 2600/2624 19010KT P6SM BKN250
     FM260700 31009KT P6SM BKN250=



000
FTUS44 KOUN 252333
TAFPNC
TAF
KPNC 252333Z 2600/2624 17009KT P6SM BKN250
     FM261000 31007KT P6SM BKN250=



000
FTUS44 KOUN 252333
TAFOUN
TAF
KOUN 252333Z 2600/2624 18006KT P6SM BKN250
     FM261000 31009KT P6SM BKN250=



000
FTUS44 KOUN 252333
TAFGAG
TAF
KGAG 252333Z 2600/2624 19010KT P6SM BKN250
     FM260700 31009KT P6SM BKN250=



000
FTUS44 KOUN 252333
TAFOUN
TAF
KOUN 252333Z 2600/2624 18006KT P6SM BKN250
     FM261000 31009KT P6SM BKN250=



000
FTUS44 KOUN 252333
TAFWWR
TAF
KWWR 252333Z 2600/2624 19010KT P6SM BKN250
     FM260700 31009KT P6SM BKN250=



000
FTUS44 KOUN 252333
TAFSPS
TAF
KSPS 252333Z 2600/2624 19009KT P6SM SCT250
     FM261100 30010KT P6SM SCT250=



000
FTUS44 KOUN 252333
TAFHBR
TAF
KHBR 252333Z 2600/2624 19010KT P6SM BKN250
     FM261000 32013KT P6SM BKN250=



000
FTUS44 KOUN 252333
TAFLAW
TAF
KLAW 252333Z 2600/2624 18007KT P6SM BKN250
     FM261000 31010KT P6SM BKN250=



000
FTUS44 KOUN 252333
TAFGAG
TAF
KGAG 252333Z 2600/2624 19010KT P6SM BKN250
     FM260700 31009KT P6SM BKN250=



000
FTUS44 KOUN 252121 AAA
TAFSPS
TAF AMD
KSPS 252121Z 2521/2618 24009KT P6SM SKC
     FM260100 19009KT P6SM SKC
     FM261100 30010KT P6SM SCT250=



000
FTUS44 KOUN 252121 AAA
TAFSPS
TAF AMD
KSPS 252121Z 2521/2618 24009KT P6SM SKC
     FM260100 19009KT P6SM SKC
     FM261100 30010KT P6SM SCT250=



000
FTUS44 KOUN 251731 CCA
TAFSPS
TAF COR
KSPS 251731Z 2518/2618 32009KT P6SM SKC
     FM252100 24009KT P6SM SKC
     FM260100 19009KT P6SM SKC
     FM261100 30010KT P6SM SCT250
      AMD NOT SKED=



000
FTUS44 KOUN 251731 CCA
TAFSPS
TAF COR
KSPS 251731Z 2518/2618 32009KT P6SM SKC
     FM252100 24009KT P6SM SKC
     FM260100 19009KT P6SM SKC
     FM261100 30010KT P6SM SCT250
      AMD NOT SKED=



000
FTUS44 KOUN 251729
TAFSPS
TAF
KSPS 251729Z 2518/2618 32009KT P6SM SKC
     FM252100 24009KT P6SM SKC
     FM260100 19009KT P6SM SKC
     FM261100 30010KT P6SM SCT250=



000
FTUS44 KOUN 251729
TAFSPS
TAF
KSPS 251729Z 2518/2618 32009KT P6SM SKC
     FM252100 24009KT P6SM SKC
     FM260100 19009KT P6SM SKC
     FM261100 30010KT P6SM SCT250=



000
FTUS44 KOUN 251729
TAFOUN
TAF
KOUN 251729Z 2518/2618 22007KT P6SM SKC
     FM260000 18006KT P6SM BKN250
     FM261000 31009KT P6SM BKN250=



000
FTUS44 KOUN 251729
TAFGAG
TAF
KGAG 251729Z 2518/2618 24010KT P6SM SKC
     FM252200 19010KT P6SM BKN250
     FM260700 31009KT P6SM BKN250=



000
FTUS44 KOUN 251729
TAFHBR
TAF
KHBR 251729Z 2518/2618 26010KT P6SM SKC
     FM260000 19010KT P6SM SCT250
     FM261000 32013KT P6SM BKN250=



000
FTUS44 KOUN 251729
TAFHBR
TAF
KHBR 251729Z 2518/2618 26010KT P6SM SKC
     FM260000 19010KT P6SM SCT250
     FM261000 32013KT P6SM BKN250=



000
FTUS44 KOUN 251729
TAFOUN
TAF
KOUN 251729Z 2518/2618 22007KT P6SM SKC
     FM260000 18006KT P6SM BKN250
     FM261000 31009KT P6SM BKN250=



000
FTUS44 KOUN 251729
TAFLAW
TAF
KLAW 251729Z 2518/2618 23007KT P6SM SKC
     FM260000 18007KT P6SM SCT250
     FM261000 31010KT P6SM BKN250=



000
FTUS44 KOUN 251729
TAFPNC
TAF
KPNC 251729Z 2518/2618 23006KT P6SM SKC
     FM252300 17009KT P6SM BKN250
     FM261000 31007KT P6SM BKN250=



000
FTUS44 KOUN 251729
TAFWWR
TAF
KWWR 251729Z 2518/2618 24010KT P6SM SKC
     FM252200 19010KT P6SM BKN250
     FM260700 31009KT P6SM BKN250=



000
FTUS44 KOUN 251729
TAFLAW
TAF
KLAW 251729Z 2518/2618 23007KT P6SM SKC
     FM260000 18007KT P6SM SCT250
     FM261000 31010KT P6SM BKN250=



000
FTUS44 KOUN 251729
TAFOKC
TAF
KOKC 251729Z 2518/2618 22007KT P6SM SKC
     FM260000 17009KT P6SM BKN250
     FM261000 31010KT P6SM BKN250=



000
FTUS44 KOUN 251729
TAFGAG
TAF
KGAG 251729Z 2518/2618 24010KT P6SM SKC
     FM252200 19010KT P6SM BKN250
     FM260700 31009KT P6SM BKN250=



000
FTUS44 KOUN 251729
TAFPNC
TAF
KPNC 251729Z 2518/2618 23006KT P6SM SKC
     FM252300 17009KT P6SM BKN250
     FM261000 31007KT P6SM BKN250=



000
FTUS44 KOUN 251729
TAFWWR
TAF
KWWR 251729Z 2518/2618 24010KT P6SM SKC
     FM252200 19010KT P6SM BKN250
     FM260700 31009KT P6SM BKN250=



000
FTUS44 KOUN 251729
TAFOKC
TAF
KOKC 251729Z 2518/2618 22007KT P6SM SKC
     FM260000 17009KT P6SM BKN250
     FM261000 31010KT P6SM BKN250=



000
FTUS44 KOUN 251124
TAFWWR
TAF
KWWR 251124Z 2512/2612 28007KT P6SM FEW050
     FM251700 23010KT P6SM SKC
     FM260000 19010KT P6SM BKN250
     FM260700 31008KT P6SM BKN250=



000
FTUS44 KOUN 251124
TAFOUN
TAF
KOUN 251124Z 2512/2612 32004KT P6SM FEW150
     FM251900 21010KT P6SM SKC
     FM260300 17009KT P6SM BKN250
     FM260900 27009KT P6SM BKN250=



000
FTUS44 KOUN 251124
TAFHBR
TAF
KHBR 251124Z 2512/2612 33010KT P6SM FEW150
     FM251900 24010KT P6SM SKC
     FM260000 18014KT P6SM SCT250
     FM261000 30012KT P6SM BKN250=



000
FTUS44 KOUN 251124
TAFGAG
TAF
KGAG 251124Z 2512/2612 28009KT P6SM SKC
     FM251700 23010KT P6SM SKC
     FM260000 19010KT P6SM BKN250
     FM260700 31008KT P6SM BKN250=



000
FTUS44 KOUN 251124
TAFSPS
TAF
KSPS 251124Z 2512/2612 32009KT P6SM FEW150
     FM252200 20009KT P6SM SKC
     FM261100 27010KT P6SM SCT250=



000
FTUS44 KOUN 251124
TAFPNC
TAF
KPNC 251124Z 2512/2612 35005KT P6SM BKN050
     FM251800 24006KT P6SM SKC
     FM252300 17009KT P6SM BKN250
     FM260900 30007KT P6SM BKN250=



000
FTUS44 KOUN 251124
TAFOKC
TAF
KOKC 251124Z 2512/2612 32004KT P6SM FEW150
     FM251900 21010KT P6SM SKC
     FM260200 17009KT P6SM BKN250
     FM260900 27009KT P6SM BKN250=



000
FTUS44 KOUN 251124
TAFLAW
TAF
KLAW 251124Z 2512/2612 VRB05KT P6SM FEW150
     FM251500 33007KT P6SM SKC
     FM252100 22007KT P6SM SCT250
     FM261000 27007KT P6SM BKN250=



000
FTUS44 KOUN 251124
TAFOKC
TAF
KOKC 251124Z 2512/2612 32004KT P6SM FEW150
     FM251900 21010KT P6SM SKC
     FM260200 17009KT P6SM BKN250
     FM260900 27009KT P6SM BKN250=



000
FTUS44 KOUN 251124
TAFSPS
TAF
KSPS 251124Z 2512/2612 32009KT P6SM FEW150
     FM252200 20009KT P6SM SKC
     FM261100 27010KT P6SM SCT250=



000
FTUS44 KOUN 251124
TAFOUN
TAF
KOUN 251124Z 2512/2612 32004KT P6SM FEW150
     FM251900 21010KT P6SM SKC
     FM260300 17009KT P6SM BKN250
     FM260900 27009KT P6SM BKN250=



000
FTUS44 KOUN 251124
TAFGAG
TAF
KGAG 251124Z 2512/2612 28009KT P6SM SKC
     FM251700 23010KT P6SM SKC
     FM260000 19010KT P6SM BKN250
     FM260700 31008KT P6SM BKN250=



000
FTUS44 KOUN 251124
TAFLAW
TAF
KLAW 251124Z 2512/2612 VRB05KT P6SM FEW150
     FM251500 33007KT P6SM SKC
     FM252100 22007KT P6SM SCT250
     FM261000 27007KT P6SM BKN250=



000
FTUS44 KOUN 251124
TAFHBR
TAF
KHBR 251124Z 2512/2612 33010KT P6SM FEW150
     FM251900 24010KT P6SM SKC
     FM260000 18014KT P6SM SCT250
     FM261000 30012KT P6SM BKN250=



000
FTUS44 KOUN 251124
TAFWWR
TAF
KWWR 251124Z 2512/2612 28007KT P6SM FEW050
     FM251700 23010KT P6SM SKC
     FM260000 19010KT P6SM BKN250
     FM260700 31008KT P6SM BKN250=



000
FTUS44 KOUN 251124
TAFPNC
TAF
KPNC 251124Z 2512/2612 35005KT P6SM BKN050
     FM251800 24006KT P6SM SKC
     FM252300 17009KT P6SM BKN250
     FM260900 30007KT P6SM BKN250=



000
FTUS44 KOUN 250539
TAFPNC
TAF
KPNC 250539Z 2506/2606 33005KT P6SM SCT200
     FM251800 24006KT P6SM SKC
     FM260100 16009KT P6SM BKN250=



000
FTUS44 KOUN 250539
TAFSPS
TAF
KSPS 250539Z 2506/2606 34006KT P6SM BKN200
     FM251500 02007KT P6SM SKC
     FM252100 20007KT P6SM SCT250=



000
FTUS44 KOUN 250539
TAFGAG
TAF
KGAG 250539Z 2506/2606 31007KT P6SM SCT150
     FM251700 23010KT P6SM SKC
     FM260100 20013KT P6SM BKN250=



000
FTUS44 KOUN 250539
TAFWWR
TAF
KWWR 250539Z 2506/2606 31007KT P6SM SCT150
     FM251700 23010KT P6SM SKC
     FM260100 20013KT P6SM BKN250=



000
FTUS44 KOUN 250539
TAFHBR
TAF
KHBR 250539Z 2506/2606 32006KT P6SM BKN250
     FM251600 25009KT P6SM SKC
     FM260300 18014KT P6SM BKN200=



000
FTUS44 KOUN 250539
TAFLAW
TAF
KLAW 250539Z 2506/2606 VRB04KT P6SM BKN200
     FM251500 35007KT P6SM SKC
     FM252100 20007KT P6SM SCT250=



000
FTUS44 KOUN 250539
TAFOKC
TAF
KOKC 250539Z 2506/2606 32004KT P6SM BKN250
     FM251900 21011KT P6SM SKC
     FM260200 16009KT P6SM BKN250=



000
FTUS44 KOUN 250539
TAFOUN
TAF
KOUN 250539Z 2506/2606 32004KT P6SM BKN250
     FM251900 20010KT P6SM SKC
     FM260300 15009KT P6SM BKN250=



000
FTUS44 KOUN 250539
TAFGAG
TAF
KGAG 250539Z 2506/2606 31007KT P6SM SCT150
     FM251700 23010KT P6SM SKC
     FM260100 20013KT P6SM BKN250=



000
FTUS44 KOUN 250539
TAFHBR
TAF
KHBR 250539Z 2506/2606 32006KT P6SM BKN250
     FM251600 25009KT P6SM SKC
     FM260300 18014KT P6SM BKN200=



000
FTUS44 KOUN 250539
TAFLAW
TAF
KLAW 250539Z 2506/2606 VRB04KT P6SM BKN200
     FM251500 35007KT P6SM SKC
     FM252100 20007KT P6SM SCT250=



000
FTUS44 KOUN 250539
TAFOKC
TAF
KOKC 250539Z 2506/2606 32004KT P6SM BKN250
     FM251900 21011KT P6SM SKC
     FM260200 16009KT P6SM BKN250=



000
FTUS44 KOUN 250539
TAFOUN
TAF
KOUN 250539Z 2506/2606 32004KT P6SM BKN250
     FM251900 20010KT P6SM SKC
     FM260300 15009KT P6SM BKN250=



000
FTUS44 KOUN 250539
TAFSPS
TAF
KSPS 250539Z 2506/2606 34006KT P6SM BKN200
     FM251500 02007KT P6SM SKC
     FM252100 20007KT P6SM SCT250=



000
FTUS44 KOUN 250539
TAFPNC
TAF
KPNC 250539Z 2506/2606 33005KT P6SM SCT200
     FM251800 24006KT P6SM SKC
     FM260100 16009KT P6SM BKN250=



000
FTUS44 KOUN 250539
TAFWWR
TAF
KWWR 250539Z 2506/2606 31007KT P6SM SCT150
     FM251700 23010KT P6SM SKC
     FM260100 20013KT P6SM BKN250=



000
FTUS44 KOUN 242325
TAFOKC
TAF
KOKC 242325Z 2500/2524 31006KT P6SM SCT100 BKN200
     FM251500 36005KT P6SM SKC
     FM251800 22011KT P6SM SCT200=



000
FTUS44 KOUN 242325
TAFGAG
TAF
KGAG 242325Z 2500/2524 33008KT P6SM BKN150
     FM251800 24010KT P6SM SCT200=



000
FTUS44 KOUN 242325
TAFOUN
TAF
KOUN 242325Z 2500/2524 31006KT P6SM SCT100 BKN200
     FM251500 36005KT P6SM SKC
     FM251800 22011KT P6SM SCT200=



000
FTUS44 KOUN 242325
TAFLAW
TAF
KLAW 242325Z 2500/2524 31005KT P6SM BKN150
     FM251500 02007KT P6SM SKC
     FM252100 20007KT P6SM SCT250=



000
FTUS44 KOUN 242325
TAFHBR
TAF
KHBR 242325Z 2500/2524 31006KT P6SM SCT100 BKN200
     FM251800 23010KT P6SM SCT250=



000
FTUS44 KOUN 242325
TAFSPS
TAF
KSPS 242325Z 2500/2524 VRB04KT P6SM BKN200
     FM251500 02007KT P6SM SKC
     FM252100 20007KT P6SM SCT250=



000
FTUS44 KOUN 242325
TAFOUN
TAF
KOUN 242325Z 2500/2524 31006KT P6SM SCT100 BKN200
     FM251500 36005KT P6SM SKC
     FM251800 22011KT P6SM SCT200=



000
FTUS44 KOUN 242325
TAFPNC
TAF
KPNC 242325Z 2500/2524 33005KT P6SM SCT150
     FM251800 24006KT P6SM SCT250=



000
FTUS44 KOUN 242325
TAFGAG
TAF
KGAG 242325Z 2500/2524 33008KT P6SM BKN150
     FM251800 24010KT P6SM SCT200=



000
FTUS44 KOUN 242325
TAFOKC
TAF
KOKC 242325Z 2500/2524 31006KT P6SM SCT100 BKN200
     FM251500 36005KT P6SM SKC
     FM251800 22011KT P6SM SCT200=



000
FTUS44 KOUN 242325
TAFWWR
TAF
KWWR 242325Z 2500/2524 33008KT P6SM BKN150
     FM251800 24010KT P6SM SCT200=



000
FTUS44 KOUN 241733
TAFWWR
TAF
KWWR 241733Z 2418/2518 30015G22KT P6SM SCT150
     FM250000 33008KT P6SM BKN120=



000
FTUS44 KOUN 241733
TAFOUN
TAF
KOUN 241733Z 2418/2518 28015G24KT P6SM FEW200
     FM250000 33006KT P6SM SCT150=



000
FTUS44 KOUN 241733
TAFPNC
TAF
KPNC 241733Z 2418/2518 30014G24KT P6SM FEW200
     FM250000 33005KT P6SM SCT120
     FM250900 01004KT P6SM SKC=



000
FTUS44 KOUN 241733
TAFGAG
TAF
KGAG 241733Z 2418/2518 30015G22KT P6SM SCT150
     FM250000 33008KT P6SM BKN120=



000
FTUS44 KOUN 241733
TAFOKC
TAF
KOKC 241733Z 2418/2518 28016G25KT P6SM FEW200
     FM250000 33006KT P6SM SCT150=



000
FTUS44 KOUN 241733
TAFLAW
TAF
KLAW 241733Z 2418/2518 30012G20KT P6SM FEW150
     FM250000 31005KT P6SM SCT120=



000
FTUS44 KOUN 241733
TAFSPS
TAF
KSPS 241733Z 2418/2518 30012KT P6SM SCT150
     FM250000 23006KT P6SM SCT120
     FM251000 32008KT P6SM SKC=



000
FTUS44 KOUN 241733
TAFHBR
TAF
KHBR 241733Z 2418/2518 31012G22KT P6SM SCT150
     FM250000 32010KT P6SM SCT120=



000
FTUS44 KOUN 241733
TAFLAW
TAF
KLAW 241733Z 2418/2518 30012G20KT P6SM FEW150
     FM250000 31005KT P6SM SCT120=



000
FTUS44 KOUN 241733
TAFWWR
TAF
KWWR 241733Z 2418/2518 30015G22KT P6SM SCT150
     FM250000 33008KT P6SM BKN120=



000
FTUS44 KOUN 241733
TAFHBR
TAF
KHBR 241733Z 2418/2518 31012G22KT P6SM SCT150
     FM250000 32010KT P6SM SCT120=



000
FTUS44 KOUN 241733
TAFOUN
TAF
KOUN 241733Z 2418/2518 28015G24KT P6SM FEW200
     FM250000 33006KT P6SM SCT150=



000
FTUS44 KOUN 241733
TAFGAG
TAF
KGAG 241733Z 2418/2518 30015G22KT P6SM SCT150
     FM250000 33008KT P6SM BKN120=



000
FTUS44 KOUN 241733
TAFPNC
TAF
KPNC 241733Z 2418/2518 30014G24KT P6SM FEW200
     FM250000 33005KT P6SM SCT120
     FM250900 01004KT P6SM SKC=



000
FTUS44 KOUN 241733
TAFSPS
TAF
KSPS 241733Z 2418/2518 30012KT P6SM SCT150
     FM250000 23006KT P6SM SCT120
     FM251000 32008KT P6SM SKC=



000
FTUS44 KOUN 241733
TAFOKC
TAF
KOKC 241733Z 2418/2518 28016G25KT P6SM FEW200
     FM250000 33006KT P6SM SCT150=



000
FTUS44 KOUN 241123
TAFSPS
TAF
KSPS 241123Z 2412/2512 31013KT P6SM SCT150
     FM250000 36005KT P6SM SCT120=



000
FTUS44 KOUN 241123
TAFOUN
TAF
KOUN 241123Z 2412/2512 28010KT P6SM FEW150
     FM241600 29014G22KT P6SM SCT150
     FM250000 36006KT P6SM SCT120=



000
FTUS44 KOUN 241123
TAFHBR
TAF
KHBR 241123Z 2412/2512 31014G22KT P6SM SCT150
     FM250000 35007KT P6SM SCT120=



000
FTUS44 KOUN 241123
TAFWWR
TAF
KWWR 241123Z 2412/2512 30016G24KT P6SM SCT150
     FM250000 33008KT P6SM BKN120=



000
FTUS44 KOUN 241123
TAFLAW
TAF
KLAW 241123Z 2412/2512 32010KT P6SM SCT150
     FM241600 31013G21KT P6SM FEW150
     FM250000 36005KT P6SM SCT120=



000
FTUS44 KOUN 241123
TAFGAG
TAF
KGAG 241123Z 2412/2512 30016G24KT P6SM SCT150
     FM250000 33008KT P6SM BKN120=



000
FTUS44 KOUN 241123
TAFPNC
TAF
KPNC 241123Z 2412/2512 29016G26KT P6SM SCT150
     FM250000 01006KT P6SM SCT120=



000
FTUS44 KOUN 241123
TAFOKC
TAF
KOKC 241123Z 2412/2512 29010KT P6SM FEW150
     FM241600 30017G24KT P6SM SCT150
     FM250000 01007KT P6SM SCT120=



000
FTUS44 KOUN 241123
TAFOKC
TAF
KOKC 241123Z 2412/2512 29010KT P6SM FEW150
     FM241600 30017G24KT P6SM SCT150
     FM250000 01007KT P6SM SCT120=



000
FTUS44 KOUN 241123
TAFSPS
TAF
KSPS 241123Z 2412/2512 31013KT P6SM SCT150
     FM250000 36005KT P6SM SCT120=



000
FTUS44 KOUN 241123
TAFGAG
TAF
KGAG 241123Z 2412/2512 30016G24KT P6SM SCT150
     FM250000 33008KT P6SM BKN120=



000
FTUS44 KOUN 241123
TAFPNC
TAF
KPNC 241123Z 2412/2512 29016G26KT P6SM SCT150
     FM250000 01006KT P6SM SCT120=



000
FTUS44 KOUN 241123
TAFLAW
TAF
KLAW 241123Z 2412/2512 32010KT P6SM SCT150
     FM241600 31013G21KT P6SM FEW150
     FM250000 36005KT P6SM SCT120=



000
FTUS44 KOUN 241123
TAFOUN
TAF
KOUN 241123Z 2412/2512 28010KT P6SM FEW150
     FM241600 29014G22KT P6SM SCT150
     FM250000 36006KT P6SM SCT120=



000
FTUS44 KOUN 241123
TAFWWR
TAF
KWWR 241123Z 2412/2512 30016G24KT P6SM SCT150
     FM250000 33008KT P6SM BKN120=



000
FTUS44 KOUN 241123
TAFHBR
TAF
KHBR 241123Z 2412/2512 31014G22KT P6SM SCT150
     FM250000 35007KT P6SM SCT120=



000
FTUS44 KOUN 240535
TAFOKC
TAF
KOKC 240535Z 2406/2506 29010KT P6SM SCT150
     FM241600 30016G23KT P6SM SKC
     FM250000 33007KT P6SM FEW150=



000
FTUS44 KOUN 240535
TAFGAG
TAF
KGAG 240535Z 2406/2506 29011KT P6SM SCT150
     FM241600 31014G22KT P6SM SKC
     FM250000 32006KT P6SM SCT150=



000
FTUS44 KOUN 240535
TAFPNC
TAF
KPNC 240535Z 2406/2506 28010KT P6SM SCT150
     FM241600 29015G22KT P6SM SKC
     FM250000 31006KT P6SM FEW150=



000
FTUS44 KOUN 240535
TAFOUN
TAF
KOUN 240535Z 2406/2506 29010KT P6SM SCT150
     FM241600 30016G23KT P6SM SKC
     FM250000 33007KT P6SM FEW150=



000
FTUS44 KOUN 240535
TAFWWR
TAF
KWWR 240535Z 2406/2506 29011KT P6SM SCT150
     FM241600 31014G22KT P6SM SKC
     FM250000 32006KT P6SM SCT150=



000
FTUS44 KOUN 240535
TAFSPS
TAF
KSPS 240535Z 2406/2506 29010KT P6SM SCT150
     FM241600 29013KT P6SM SKC
     FM250000 VRB04KT P6SM FEW150=



000
FTUS44 KOUN 240535
TAFHBR
TAF
KHBR 240535Z 2406/2506 29011KT P6SM SCT150
     FM241600 30015G23KT P6SM SKC
     FM250000 35006KT P6SM FEW150=



000
FTUS44 KOUN 240535
TAFLAW
TAF
KLAW 240535Z 2406/2506 30008KT P6SM SCT150
     FM241600 29013KT P6SM SKC
     FM250000 VRB04KT P6SM FEW150=



000
FTUS44 KOUN 240535
TAFLAW
TAF
KLAW 240535Z 2406/2506 30008KT P6SM SCT150
     FM241600 29013KT P6SM SKC
     FM250000 VRB04KT P6SM FEW150=



000
FTUS44 KOUN 240535
TAFPNC
TAF
KPNC 240535Z 2406/2506 28010KT P6SM SCT150
     FM241600 29015G22KT P6SM SKC
     FM250000 31006KT P6SM FEW150=



000
FTUS44 KOUN 240535
TAFGAG
TAF
KGAG 240535Z 2406/2506 29011KT P6SM SCT150
     FM241600 31014G22KT P6SM SKC
     FM250000 32006KT P6SM SCT150=



000
FTUS44 KOUN 240535
TAFOUN
TAF
KOUN 240535Z 2406/2506 29010KT P6SM SCT150
     FM241600 30016G23KT P6SM SKC
     FM250000 33007KT P6SM FEW150=



000
FTUS44 KOUN 240535
TAFOKC
TAF
KOKC 240535Z 2406/2506 29010KT P6SM SCT150
     FM241600 30016G23KT P6SM SKC
     FM250000 33007KT P6SM FEW150=



000
FTUS44 KOUN 240535
TAFHBR
TAF
KHBR 240535Z 2406/2506 29011KT P6SM SCT150
     FM241600 30015G23KT P6SM SKC
     FM250000 35006KT P6SM FEW150=



000
FTUS44 KOUN 240535
TAFSPS
TAF
KSPS 240535Z 2406/2506 29010KT P6SM SCT150
     FM241600 29013KT P6SM SKC
     FM250000 VRB04KT P6SM FEW150=



000
FTUS44 KOUN 240535
TAFWWR
TAF
KWWR 240535Z 2406/2506 29011KT P6SM SCT150
     FM241600 31014G22KT P6SM SKC
     FM250000 32006KT P6SM SCT150=



000
FTUS44 KOUN 232323
TAFGAG
TAF
KGAG 232323Z 2400/2424 34013G19KT P6SM BKN100
     FM240200 30011KT P6SM SCT150
     FM241600 29014G20KT P6SM SKC=



000
FTUS44 KOUN 232323
TAFOUN
TAF
KOUN 232323Z 2400/2424 32024G32KT P6SM OVC025
      TEMPO 2400/2402 6SM -RA BR
     FM240200 31019G25KT P6SM BKN100
     FM240500 29013KT P6SM SCT150
     FM241600 29016G23KT P6SM SKC=



000
FTUS44 KOUN 232323
TAFLAW
TAF
KLAW 232323Z 2400/2424 33022G34KT P6SM BKN040
      TEMPO 2400/2402 -RA OVC025
     FM240200 30010KT P6SM SCT150
     FM241600 29014KT P6SM SKC=



000
FTUS44 KOUN 232323
TAFOUN
TAF
KOUN 232323Z 2400/2424 32024G32KT P6SM OVC025
      TEMPO 2400/2402 6SM -RA BR
     FM240200 31019G25KT P6SM BKN100
     FM240500 29013KT P6SM SCT150
     FM241600 29016G23KT P6SM SKC=



000
FTUS44 KOUN 232323
TAFSPS
TAF
KSPS 232323Z 2400/2424 32023G33KT P6SM BKN040
      TEMPO 2400/2402 -RA OVC025
     FM240200 29010KT P6SM SCT150
     FM241600 29013KT P6SM SCT150=



000
FTUS44 KOUN 232323
TAFOKC
TAF
KOKC 232323Z 2400/2424 33025G33KT P6SM OVC025
      TEMPO 2400/2402 6SM -RA BR
     FM240200 31019G25KT P6SM BKN100
     FM240500 29013KT P6SM SCT150
     FM241600 29016G23KT P6SM SKC=



000
FTUS44 KOUN 232323
TAFPNC
TAF
KPNC 232323Z 2400/2424 33024G32KT P6SM VCSH OVC025
      TEMPO 2400/2402 6SM -RA BR OVC015
     FM240200 31016G23KT P6SM BKN070
     FM240500 29010KT P6SM SCT150
     FM241600 29015G22KT P6SM SKC=



000
FTUS44 KOUN 232323
TAFWWR
TAF
KWWR 232323Z 2400/2424 33013G19KT P6SM BKN100
     FM240200 31011KT P6SM SCT150
     FM241600 29014G21KT P6SM SKC=



000
FTUS44 KOUN 232323
TAFOKC
TAF
KOKC 232323Z 2400/2424 33025G33KT P6SM OVC025
      TEMPO 2400/2402 6SM -RA BR
     FM240200 31019G25KT P6SM BKN100
     FM240500 29013KT P6SM SCT150
     FM241600 29016G23KT P6SM SKC=



000
FTUS44 KOUN 232323
TAFHBR
TAF
KHBR 232323Z 2400/2424 34024G35KT P6SM BKN100
      TEMPO 2400/2402 -RA OVC040
     FM240200 31011KT P6SM SCT150
     FM241600 29015G23KT P6SM SKC=



000
FTUS44 KOUN 232323
TAFHBR
TAF
KHBR 232323Z 2400/2424 34024G35KT P6SM BKN100
      TEMPO 2400/2402 -RA OVC040
     FM240200 31011KT P6SM SCT150
     FM241600 29015G23KT P6SM SKC=



000
FTUS44 KOUN 232323
TAFGAG
TAF
KGAG 232323Z 2400/2424 34013G19KT P6SM BKN100
     FM240200 30011KT P6SM SCT150
     FM241600 29014G20KT P6SM SKC=



000
FTUS44 KOUN 232323
TAFSPS
TAF
KSPS 232323Z 2400/2424 32023G33KT P6SM BKN040
      TEMPO 2400/2402 -RA OVC025
     FM240200 29010KT P6SM SCT150
     FM241600 29013KT P6SM SCT150=



000
FTUS44 KOUN 232323
TAFWWR
TAF
KWWR 232323Z 2400/2424 33013G19KT P6SM BKN100
     FM240200 31011KT P6SM SCT150
     FM241600 29014G21KT P6SM SKC=



000
FTUS44 KOUN 232323
TAFLAW
TAF
KLAW 232323Z 2400/2424 33022G34KT P6SM BKN040
      TEMPO 2400/2402 -RA OVC025
     FM240200 30010KT P6SM SCT150
     FM241600 29014KT P6SM SKC=



000
FTUS44 KOUN 232323
TAFPNC
TAF
KPNC 232323Z 2400/2424 33024G32KT P6SM VCSH OVC025
      TEMPO 2400/2402 6SM -RA BR OVC015
     FM240200 31016G23KT P6SM BKN070
     FM240500 29010KT P6SM SCT150
     FM241600 29015G22KT P6SM SKC=



000
FTUS44 KOUN 231733
TAFLAW
TAF
KLAW 231733Z 2318/2418 33026G37KT P6SM BKN040
     FM240000 31016G25KT P6SM BKN100
     FM240200 29010KT P6SM FEW150=



000
FTUS44 KOUN 231733
TAFGAG
TAF
KGAG 231733Z 2318/2418 35028G38KT P6SM OVC050
     FM240000 30011KT P6SM SCT150
     FM241600 30016G22KT P6SM SKC=



000
FTUS44 KOUN 231733
TAFHBR
TAF
KHBR 231733Z 2318/2418 33028G40KT P6SM BKN035
     FM240000 31016G25KT P6SM SCT100
     FM240200 30010KT P6SM FEW150
     FM241600 29015G22KT P6SM SKC=



000
FTUS44 KOUN 231733
TAFOUN
TAF
KOUN 231733Z 2318/2418 24016G25KT P6SM BKN025
     FM232000 32026G36KT P6SM BKN040
     FM232200 32028G38KT P6SM VCSH OVC040
     FM240100 31019G25KT P6SM BKN100
     FM240400 29013KT P6SM FEW180
     FM241600 29016G22KT P6SM SKC=



000
FTUS44 KOUN 231733
TAFSPS
TAF
KSPS 231733Z 2318/2418 32028G39KT P6SM BKN050
     FM240000 31016G25KT P6SM BKN100
     FM240200 29010KT P6SM FEW150=



000
FTUS44 KOUN 231733
TAFOKC
TAF
KOKC 231733Z 2318/2418 24016G25KT P6SM BKN025
     FM232000 32026G36KT P6SM BKN040
     FM232200 32028G38KT P6SM VCSH OVC040
     FM240100 31019G25KT P6SM BKN100
     FM240400 29013KT P6SM FEW180
     FM241600 29016G22KT P6SM SKC=



000
FTUS44 KOUN 231733
TAFPNC
TAF
KPNC 231733Z 2318/2418 30012KT P6SM OVC025
     FM232000 33024G34KT P6SM VCSH OVC035
      TEMPO 2322/2324 5SM -RA BR OVC025
     FM240100 31016G23KT P6SM BKN080
     FM240400 29010KT P6SM FEW180
     FM241600 29015G22KT P6SM SKC=



000
FTUS44 KOUN 231733
TAFWWR
TAF
KWWR 231733Z 2318/2418 35028G38KT P6SM FEW018 OVC040
     FM240000 30011KT P6SM SCT150
     FM241600 30016G22KT P6SM SKC=



000
FTUS44 KOUN 231733
TAFLAW
TAF
KLAW 231733Z 2318/2418 33026G37KT P6SM BKN040
     FM240000 31016G25KT P6SM BKN100
     FM240200 29010KT P6SM FEW150=



000
FTUS44 KOUN 231733
TAFHBR
TAF
KHBR 231733Z 2318/2418 33028G40KT P6SM BKN035
     FM240000 31016G25KT P6SM SCT100
     FM240200 30010KT P6SM FEW150
     FM241600 29015G22KT P6SM SKC=



000
FTUS44 KOUN 231733
TAFOUN
TAF
KOUN 231733Z 2318/2418 24016G25KT P6SM BKN025
     FM232000 32026G36KT P6SM BKN040
     FM232200 32028G38KT P6SM VCSH OVC040
     FM240100 31019G25KT P6SM BKN100
     FM240400 29013KT P6SM FEW180
     FM241600 29016G22KT P6SM SKC=



000
FTUS44 KOUN 231733
TAFGAG
TAF
KGAG 231733Z 2318/2418 35028G38KT P6SM OVC050
     FM240000 30011KT P6SM SCT150
     FM241600 30016G22KT P6SM SKC=



000
FTUS44 KOUN 231733
TAFWWR
TAF
KWWR 231733Z 2318/2418 35028G38KT P6SM FEW018 OVC040
     FM240000 30011KT P6SM SCT150
     FM241600 30016G22KT P6SM SKC=



000
FTUS44 KOUN 231733
TAFOKC
TAF
KOKC 231733Z 2318/2418 24016G25KT P6SM BKN025
     FM232000 32026G36KT P6SM BKN040
     FM232200 32028G38KT P6SM VCSH OVC040
     FM240100 31019G25KT P6SM BKN100
     FM240400 29013KT P6SM FEW180
     FM241600 29016G22KT P6SM SKC=



000
FTUS44 KOUN 231733
TAFSPS
TAF
KSPS 231733Z 2318/2418 32028G39KT P6SM BKN050
     FM240000 31016G25KT P6SM BKN100
     FM240200 29010KT P6SM FEW150=



000
FTUS44 KOUN 231733
TAFPNC
TAF
KPNC 231733Z 2318/2418 30012KT P6SM OVC025
     FM232000 33024G34KT P6SM VCSH OVC035
      TEMPO 2322/2324 5SM -RA BR OVC025
     FM240100 31016G23KT P6SM BKN080
     FM240400 29010KT P6SM FEW180
     FM241600 29015G22KT P6SM SKC=



000
FTUS44 KOUN 231646 AAB
TAFHBR
TAF AMD
KHBR 231646Z 2317/2412 29015G24KT P6SM SKC
     FM231800 32027G38KT P6SM SCT010
     FM240000 31015KT P6SM SCT100=



000
FTUS44 KOUN 231646 AAB
TAFHBR
TAF AMD
KHBR 231646Z 2317/2412 29015G24KT P6SM SKC
     FM231800 32027G38KT P6SM SCT010
     FM240000 31015KT P6SM SCT100=



000
FTUS44 KOUN 231644 AAA
TAFWWR
TAF AMD
KWWR 231644Z 2317/2412 32020G30KT P6SM BKN012
      TEMPO 2317/2318 SCT012
     FM231800 33028G38KT P6SM BKN020
     FM240000 33015KT P6SM SCT100=



000
FTUS44 KOUN 231644 AAA
TAFWWR
TAF AMD
KWWR 231644Z 2317/2412 32020G30KT P6SM BKN012
      TEMPO 2317/2318 SCT012
     FM231800 33028G38KT P6SM BKN020
     FM240000 33015KT P6SM SCT100=



000
FTUS44 KOUN 231643 AAA
TAFGAG
TAF AMD
KGAG 231643Z 2317/2412 34020G30KT P6SM BKN012
      TEMPO 2317/2318 SCT012
     FM231800 33028G38KT P6SM BKN020
     FM240000 33015KT P6SM SCT100=



000
FTUS44 KOUN 231640 AAC
TAFOUN
TAF AMD
KOUN 231640Z 2317/2412 19015G22KT P6SM BKN015
     FM231800 23016G24KT P6SM BKN100
     FM232000 32025G35KT P6SM SCT030
     FM240200 30016G24KT P6SM FEW030=



000
FTUS44 KOUN 231640 AAC
TAFOUN
TAF AMD
KOUN 231640Z 2317/2412 19015G22KT P6SM BKN015
     FM231800 23016G24KT P6SM BKN100
     FM232000 32025G35KT P6SM SCT030
     FM240200 30016G24KT P6SM FEW030=



000
FTUS44 KOUN 231639 AAB
TAFOKC
TAF AMD
KOKC 231639Z 2317/2412 18014G22KT P6SM BKN015
     FM231800 21016G25KT P6SM SCT020
     FM232000 32028G38KT P6SM SCT030
     FM240200 30019G25KT P6SM FEW030=



000
FTUS44 KOUN 231505 AAA
TAFSPS
TAF AMD
KSPS 231505Z 2315/2412 20015G24KT P6SM SCT010 BKN100
     FM231800 23014G25KT P6SM SCT015
     FM232100 32025G35KT P6SM SCT030
     FM240100 30013KT P6SM SCT100=



000
FTUS44 KOUN 231505 AAA
TAFSPS
TAF AMD
KSPS 231505Z 2315/2412 20015G24KT P6SM SCT010 BKN100
     FM231800 23014G25KT P6SM SCT015
     FM232100 32025G35KT P6SM SCT030
     FM240100 30013KT P6SM SCT100=



000
FTUS44 KOUN 231504 AAA
TAFLAW
TAF AMD
KLAW 231504Z 2315/2412 18012G20KT P6SM SCT010 BKN100
     FM231800 24014G25KT P6SM FEW015
     FM232100 32025G35KT P6SM SCT030
     FM240000 30013KT P6SM SCT100=



000
FTUS44 KOUN 231504 AAA
TAFLAW
TAF AMD
KLAW 231504Z 2315/2412 18012G20KT P6SM SCT010 BKN100
     FM231800 24014G25KT P6SM FEW015
     FM232100 32025G35KT P6SM SCT030
     FM240000 30013KT P6SM SCT100=



000
FTUS44 KOUN 231502 AAA
TAFHBR
TAF AMD
KHBR 231502Z 2315/2412 24014G24KT P6SM BKN008
      TEMPO 2315/2316 BKN004
     FM231700 33028G40KT P6SM BKN030
     FM240000 31015KT P6SM SCT100=



000
FTUS44 KOUN 231502 AAA
TAFHBR
TAF AMD
KHBR 231502Z 2315/2412 24014G24KT P6SM BKN008
      TEMPO 2315/2316 BKN004
     FM231700 33028G40KT P6SM BKN030
     FM240000 31015KT P6SM SCT100=



000
FTUS44 KOUN 231500 AAA
TAFPNC
TAF AMD
KPNC 231500Z 2315/2412 17012KT P6SM BKN012
     FM231600 23014KT P6SM OVC015
     FM232000 33024G34KT P6SM BKN025
      TEMPO 2320/2324 5SM -RA BR OVC012
     FM240100 31013KT P6SM SCT030 SCT150=



000
FTUS44 KOUN 231456 AAB
TAFOUN
TAF AMD
KOUN 231456Z 2315/2412 17015G24KT P6SM SCT006
      TEMPO 2315/2316 BKN012
     FM231700 23016G24KT P6SM BKN100
     FM232000 32025G35KT P6SM SCT030
     FM240200 30016G24KT P6SM FEW030=



000
FTUS44 KOUN 231456 AAB
TAFOUN
TAF AMD
KOUN 231456Z 2315/2412 17015G24KT P6SM SCT006
      TEMPO 2315/2316 BKN012
     FM231700 23016G24KT P6SM BKN100
     FM232000 32025G35KT P6SM SCT030
     FM240200 30016G24KT P6SM FEW030=



000
FTUS44 KOUN 231454 AAA
TAFOKC
TAF AMD
KOKC 231454Z 2315/2412 17012G20KT P6SM SCT008
      TEMPO 2315/2316 BKN007
     FM231700 23016G24KT P6SM BKN100
     FM232000 32028G38KT P6SM SCT030
     FM240200 30019G25KT P6SM FEW030=



000
FTUS44 KOUN 231454 AAA
TAFOKC
TAF AMD
KOKC 231454Z 2315/2412 17012G20KT P6SM SCT008
      TEMPO 2315/2316 BKN007
     FM231700 23016G24KT P6SM BKN100
     FM232000 32028G38KT P6SM SCT030
     FM240200 30019G25KT P6SM FEW030=



000
FTUS44 KOUN 231140
TAFPNC
TAF
KPNC 231140Z 2312/2412 16014KT P6SM OVC012
     FM231600 23014KT P6SM OVC015
     FM232000 33024G34KT P6SM BKN025
      TEMPO 2320/2324 5SM -RA BR OVC012
     FM240100 31013KT P6SM SCT030 SCT150=



000
FTUS44 KOUN 231140
TAFOUN
TAF
KOUN 231140Z 2312/2412 16015KT P6SM OVC006
     FM231400 18015G24KT P6SM SCT008
      TEMPO 2314/2316 BKN008
     FM231700 23016G24KT P6SM BKN100
     FM232000 32025G35KT P6SM OVC030
     FM240100 30016KT P6SM SCT030=



000
FTUS44 KOUN 231140
TAFLAW
TAF
KLAW 231140Z 2312/2412 18012KT 6SM BR SCT005
      TEMPO 2312/2314 1/2SM FG OVC005
     FM231400 23015G21KT P6SM SCT010 BKN100
     FM231800 32025G35KT P6SM SCT030
     FM240000 30013KT P6SM SCT100=



000
FTUS44 KOUN 231140
TAFOKC
TAF
KOKC 231140Z 2312/2412 16015KT P6SM OVC004
     FM231400 18016G24KT P6SM SCT008
      TEMPO 2314/2316 BKN008
     FM231700 23016G24KT P6SM BKN100
     FM232000 32028G38KT P6SM OVC030 PROB30 2321/2324 -SHRA
     FM240100 30019KT P6SM SCT030=



000
FTUS44 KOUN 231140
TAFWWR
TAF
KWWR 231140Z 2312/2412 25014KT P6SM SCT010
     FM231600 34028G39KT P6SM BKN030
     FM240000 33015KT P6SM SCT100=



000
FTUS44 KOUN 231140
TAFGAG
TAF
KGAG 231140Z 2312/2412 25015KT P6SM SCT010
     FM231600 34028G39KT P6SM BKN030
     FM240000 33015KT P6SM SCT100=



000
FTUS44 KOUN 231140
TAFHBR
TAF
KHBR 231140Z 2312/2412 20016KT P6SM OVC005
      TEMPO 2312/2314 4SM BR
     FM231400 24018G25KT P6SM SCT010 BKN100
     FM231700 33028G40KT P6SM BKN030
     FM240000 31015KT P6SM SCT100=



000
FTUS44 KOUN 231140
TAFHBR
TAF
KHBR 231140Z 2312/2412 20016KT P6SM OVC005
      TEMPO 2312/2314 4SM BR
     FM231400 24018G25KT P6SM SCT010 BKN100
     FM231700 33028G40KT P6SM BKN030
     FM240000 31015KT P6SM SCT100=



000
FTUS44 KOUN 231140
TAFLAW
TAF
KLAW 231140Z 2312/2412 18012KT 6SM BR SCT005
      TEMPO 2312/2314 1/2SM FG OVC005
     FM231400 23015G21KT P6SM SCT010 BKN100
     FM231800 32025G35KT P6SM SCT030
     FM240000 30013KT P6SM SCT100=



000
FTUS44 KOUN 231140
TAFSPS
TAF
KSPS 231140Z 2312/2412 21014KT P6SM SCT005
     FM231500 24017G24KT P6SM SCT010 BKN100
     FM232000 32025G35KT P6SM SCT030
     FM240100 30013KT P6SM SCT100=



    US Dept of Commerce
    National Oceanic and Atmospheric Administration
    National Weather Service
    1325 East West Highway
    Silver Spring, MD 20910
    Page Author: NWS Internet Services Team
Disclaimer
Information Quality
Credits
Glossary
Privacy Policy
Freedom of Information Act (FOIA)
About Us
Career Opportunities